sensor_id;sensor_type;location;lat;lon;timestamp;pressure;altitude;pressure_sealevel;temperature;humidity
20752;BME280;10536;51.582;5.016;2022-12-01T00:02:43;102738.13;;;11.37;100.00
20752;BME280;10536;51.582;5.016;2022-12-01T00:07:43;102730.50;;;11.50;100.00
20752;BME280;10536;51.582;5.016;2022-12-01T00:12:44;102729.66;;;11.51;100.00
20752;BME280;10536;51.582;5.016;2022-12-01T00:17:45;102728.06;;;11.01;100.00
20752;BME280;10536;51.582;5.016;2022-12-01T00:22:47;102725.69;;;11.13;100.00
20752;BME280;10536;51.582;5.016;2022-12-01T00:27:49;102716.28;;;11.20;100.00
20752;BME280;10536;51.582;5.016;2022-12-01T00:32:50;102723.66;;;10.94;100.00
20752;BME280;10536;51.582;5.016;2022-12-01T00:37:50;102712.81;;;11.21;100.00
20752;BME280;10536;51.582;5.016;2022-12-01T00:42:51;102714.78;;;11.37;100.00
20752;BME280;10536;51.582;5.016;2022-12-01T00:47:51;102715.44;;;11.22;100.00
20752;BME280;10536;51.582;5.016;2022-12-01T00:52:52;102720.84;;;11.38;100.00
20752;BME280;10536;51.582;5.016;2022-12-01T00:57:52;102725.84;;;11.25;100.00
20752;BME280;10536;51.582;5.016;2022-12-01T01:02:52;102715.72;;;11.41;100.00
20752;BME280;10536;51.582;5.016;2022-12-01T01:07:53;102717.13;;;11.17;100.00
20752;BME280;10536;51.582;5.016;2022-12-01T01:12:54;102730.19;;;11.25;100.00
20752;BME280;10536;51.582;5.016;2022-12-01T01:17:54;102723.53;;;11.42;100.00
20752;BME280;10536;51.582;5.016;2022-12-01T01:22:55;102738.88;;;11.30;100.00
20752;BME280;10536;51.582;5.016;2022-12-01T01:27:55;102745.41;;;11.64;100.00
20752;BME280;10536;51.582;5.016;2022-12-01T01:32:56;102747.72;;;11.44;100.00
20752;BME280;10536;51.582;5.016;2022-12-01T01:37:56;102747.84;;;11.54;100.00
20752;BME280;10536;51.582;5.016;2022-12-01T01:42:56;102746.50;;;11.21;100.00
20752;BME280;10536;51.582;5.016;2022-12-01T01:47:58;102749.91;;;11.18;100.00
20752;BME280;10536;51.582;5.016;2022-12-01T01:53:11;102744.66;;;11.12;100.00
20752;BME280;10536;51.582;5.016;2022-12-01T01:58:13;102752.78;;;10.80;100.00
20752;BME280;10536;51.582;5.016;2022-12-01T02:03:15;102744.19;;;10.83;100.00
20752;BME280;10536;51.582;5.016;2022-12-01T02:08:17;102748.97;;;11.12;100.00
20752;BME280;10536;51.582;5.016;2022-12-01T02:18:55;102753.97;;;11.01;100.00
20752;BME280;10536;51.582;5.016;2022-12-01T02:34:51;102745.63;;;11.20;100.00
20752;BME280;10536;51.582;5.016;2022-12-01T02:40:22;102750.78;;;11.19;100.00
20752;BME280;10536;51.582;5.016;2022-12-01T02:50:43;102740.53;;;11.25;100.00
20752;BME280;10536;51.582;5.016;2022-12-01T02:55:52;102747.13;;;11.04;100.00
20752;BME280;10536;51.582;5.016;2022-12-01T03:01:06;102744.72;;;11.17;100.00
20752;BME280;10536;51.582;5.016;2022-12-01T03:16:52;102751.56;;;10.61;100.00
20752;BME280;10536;51.582;5.016;2022-12-01T03:22:02;102747.97;;;11.05;100.00
20752;BME280;10536;51.582;5.016;2022-12-01T03:27:04;102740.09;;;10.96;100.00
20752;BME280;10536;51.582;5.016;2022-12-01T03:37:46;102747.97;;;11.05;100.00
20752;BME280;10536;51.582;5.016;2022-12-01T03:42:54;102754.47;;;10.78;100.00
20752;BME280;10536;51.582;5.016;2022-12-01T03:47:56;102747.69;;;10.86;100.00
20752;BME280;10536;51.582;5.016;2022-12-01T03:53:09;102758.81;;;10.81;100.00
20752;BME280;10536;51.582;5.016;2022-12-01T03:58:12;102756.84;;;10.67;100.00
20752;BME280;10536;51.582;5.016;2022-12-01T04:03:18;102751.69;;;10.67;100.00
20752;BME280;10536;51.582;5.016;2022-12-01T04:08:19;102757.78;;;10.71;100.00
20752;BME280;10536;51.582;5.016;2022-12-01T04:13:20;102757.69;;;10.65;100.00
20752;BME280;10536;51.582;5.016;2022-12-01T04:18:23;102757.84;;;10.74;100.00
20752;BME280;10536;51.582;5.016;2022-12-01T04:23:23;102754.09;;;10.57;100.00
20752;BME280;10536;51.582;5.016;2022-12-01T04:28:42;102747.94;;;10.52;100.00
20752;BME280;10536;51.582;5.016;2022-12-01T04:33:43;102755.53;;;10.91;100.00
20752;BME280;10536;51.582;5.016;2022-12-01T04:38:43;102756.91;;;10.71;100.00
20752;BME280;10536;51.582;5.016;2022-12-01T04:43:43;102761.09;;;10.62;100.00
20752;BME280;10536;51.582;5.016;2022-12-01T04:48:44;102757.75;;;10.70;100.00
20752;BME280;10536;51.582;5.016;2022-12-01T04:53:44;102744.88;;;10.73;100.00
20752;BME280;10536;51.582;5.016;2022-12-01T04:58:45;102746.63;;;10.75;100.00
20752;BME280;10536;51.582;5.016;2022-12-01T05:03:47;102755.28;;;10.77;100.00
20752;BME280;10536;51.582;5.016;2022-12-01T05:08:54;102754.75;;;10.97;100.00
20752;BME280;10536;51.582;5.016;2022-12-01T05:13:55;102746.69;;;10.80;100.00
20752;BME280;10536;51.582;5.016;2022-12-01T05:18:58;102741.59;;;10.83;100.00
20752;BME280;10536;51.582;5.016;2022-12-01T05:24:19;102747.75;;;10.91;100.00
20752;BME280;10536;51.582;5.016;2022-12-01T05:29:20;102751.88;;;10.80;100.00
20752;BME280;10536;51.582;5.016;2022-12-01T05:34:20;102751.59;;;11.15;100.00
20752;BME280;10536;51.582;5.016;2022-12-01T05:39:21;102759.06;;;10.96;100.00
20752;BME280;10536;51.582;5.016;2022-12-01T05:44:21;102755.63;;;10.97;100.00
20752;BME280;10536;51.582;5.016;2022-12-01T05:49:22;102764.66;;;10.69;100.00
20752;BME280;10536;51.582;5.016;2022-12-01T05:54:22;102762.69;;;10.56;100.00
20752;BME280;10536;51.582;5.016;2022-12-01T05:59:23;102766.13;;;11.06;100.00
20752;BME280;10536;51.582;5.016;2022-12-01T06:04:23;102756.41;;;10.93;100.00
20752;BME280;10536;51.582;5.016;2022-12-01T06:09:23;102767.56;;;10.89;100.00
20752;BME280;10536;51.582;5.016;2022-12-01T06:14:24;102757.63;;;11.14;100.00
20752;BME280;10536;51.582;5.016;2022-12-01T06:19:24;102758.56;;;11.20;100.00
20752;BME280;10536;51.582;5.016;2022-12-01T06:24:25;102768.38;;;11.40;100.00
20752;BME280;10536;51.582;5.016;2022-12-01T06:29:25;102778.00;;;11.49;100.00
20752;BME280;10536;51.582;5.016;2022-12-01T06:34:26;102777.97;;;11.45;100.00
20752;BME280;10536;51.582;5.016;2022-12-01T06:39:26;102773.53;;;11.38;100.00
20752;BME280;10536;51.582;5.016;2022-12-01T06:44:26;102779.66;;;11.43;100.00
20752;BME280;10536;51.582;5.016;2022-12-01T06:49:27;102784.97;;;11.53;100.00
20752;BME280;10536;51.582;5.016;2022-12-01T06:54:27;102786.91;;;11.10;100.00
20752;BME280;10536;51.582;5.016;2022-12-01T06:59:28;102789.53;;;11.13;100.00
20752;BME280;10536;51.582;5.016;2022-12-01T07:04:29;102797.13;;;11.00;100.00
20752;BME280;10536;51.582;5.016;2022-12-01T07:09:30;102802.09;;;10.90;100.00
20752;BME280;10536;51.582;5.016;2022-12-01T07:14:30;102800.44;;;10.93;100.00
20752;BME280;10536;51.582;5.016;2022-12-01T07:19:31;102810.25;;;11.13;100.00
20752;BME280;10536;51.582;5.016;2022-12-01T07:24:31;102798.19;;;11.15;100.00
20752;BME280;10536;51.582;5.016;2022-12-01T07:29:32;102807.78;;;11.20;100.00
20752;BME280;10536;51.582;5.016;2022-12-01T07:34:32;102810.47;;;11.26;100.00
20752;BME280;10536;51.582;5.016;2022-12-01T07:39:33;102815.88;;;11.40;100.00
20752;BME280;10536;51.582;5.016;2022-12-01T07:44:33;102823.44;;;11.26;100.00
20752;BME280;10536;51.582;5.016;2022-12-01T07:49:34;102823.94;;;11.04;100.00
20752;BME280;10536;51.582;5.016;2022-12-01T07:54:37;102829.16;;;11.05;100.00
20752;BME280;10536;51.582;5.016;2022-12-01T07:59:41;102826.84;;;11.24;100.00
20752;BME280;10536;51.582;5.016;2022-12-01T08:04:42;102831.31;;;11.33;100.00
20752;BME280;10536;51.582;5.016;2022-12-01T08:09:42;102835.41;;;11.20;100.00
20752;BME280;10536;51.582;5.016;2022-12-01T08:14:44;102833.66;;;11.19;100.00
20752;BME280;10536;51.582;5.016;2022-12-01T08:19:44;102830.44;;;11.32;100.00
20752;BME280;10536;51.582;5.016;2022-12-01T08:24:45;102831.88;;;11.13;100.00
20752;BME280;10536;51.582;5.016;2022-12-01T08:29:45;102834.34;;;11.07;100.00
20752;BME280;10536;51.582;5.016;2022-12-01T08:34:46;102837.03;;;11.12;100.00
20752;BME280;10536;51.582;5.016;2022-12-01T08:39:46;102854.38;;;10.70;100.00
20752;BME280;10536;51.582;5.016;2022-12-01T08:44:47;102861.25;;;10.68;100.00
20752;BME280;10536;51.582;5.016;2022-12-01T08:49:47;102864.53;;;10.59;100.00
20752;BME280;10536;51.582;5.016;2022-12-01T08:54:48;102868.09;;;10.64;100.00
20752;BME280;10536;51.582;5.016;2022-12-01T08:59:48;102871.47;;;10.62;100.00
20752;BME280;10536;51.582;5.016;2022-12-01T09:04:49;102869.91;;;10.70;100.00
20752;BME280;10536;51.582;5.016;2022-12-01T09:09:50;102872.63;;;10.78;100.00
20752;BME280;10536;51.582;5.016;2022-12-01T09:14:50;102881.19;;;10.72;100.00
20752;BME280;10536;51.582;5.016;2022-12-01T09:19:52;102875.56;;;10.95;100.00
20752;BME280;10536;51.582;5.016;2022-12-01T09:24:52;102874.72;;;10.97;100.00
20752;BME280;10536;51.582;5.016;2022-12-01T09:29:53;102873.88;;;10.97;100.00
20752;BME280;10536;51.582;5.016;2022-12-01T09:34:53;102881.97;;;11.17;100.00
20752;BME280;10536;51.582;5.016;2022-12-01T09:39:53;102886.25;;;10.67;100.00
20752;BME280;10536;51.582;5.016;2022-12-01T09:44:56;102872.72;;;10.81;100.00
20752;BME280;10536;51.582;5.016;2022-12-01T09:50:09;102874.91;;;11.06;100.00
20752;BME280;10536;51.582;5.016;2022-12-01T09:55:13;102871.41;;;11.04;100.00
20752;BME280;10536;51.582;5.016;2022-12-01T10:00:25;102861.97;;;11.61;100.00
20752;BME280;10536;51.582;5.016;2022-12-01T10:05:32;102856.97;;;11.17;100.00
20752;BME280;10536;51.582;5.016;2022-12-01T10:10:38;102854.88;;;11.46;100.00
20752;BME280;10536;51.582;5.016;2022-12-01T10:15:50;102844.38;;;11.40;100.00
20752;BME280;10536;51.582;5.016;2022-12-01T10:21:03;102839.25;;;11.43;100.00
20752;BME280;10536;51.582;5.016;2022-12-01T10:26:12;102842.22;;;11.68;100.00
20752;BME280;10536;51.582;5.016;2022-12-01T10:31:20;102839.63;;;11.70;100.00
20752;BME280;10536;51.582;5.016;2022-12-01T10:36:24;102834.69;;;11.83;100.00
20752;BME280;10536;51.582;5.016;2022-12-01T10:41:26;102829.63;;;11.93;100.00
20752;BME280;10536;51.582;5.016;2022-12-01T10:46:36;102837.13;;;11.74;100.00
20752;BME280;10536;51.582;5.016;2022-12-01T10:56:54;102827.28;;;12.11;100.00
20752;BME280;10536;51.582;5.016;2022-12-01T11:01:55;102831.31;;;11.91;100.00
20752;BME280;10536;51.582;5.016;2022-12-01T11:06:56;102826.88;;;11.82;100.00
20752;BME280;10536;51.582;5.016;2022-12-01T11:11:59;102836.78;;;12.11;100.00
20752;BME280;10536;51.582;5.016;2022-12-01T11:22:33;102820.19;;;11.98;100.00
20752;BME280;10536;51.582;5.016;2022-12-01T11:27:48;102812.94;;;11.75;100.00
20752;BME280;10536;51.582;5.016;2022-12-01T11:32:55;102811.88;;;11.61;100.00
20752;BME280;10536;51.582;5.016;2022-12-01T11:37:59;102800.41;;;11.45;100.00
20752;BME280;10536;51.582;5.016;2022-12-01T11:43:03;102800.09;;;11.23;100.00
20752;BME280;10536;51.582;5.016;2022-12-01T11:53:28;102799.84;;;11.08;100.00
20752;BME280;10536;51.582;5.016;2022-12-01T11:58:29;102794.19;;;10.80;100.00
20752;BME280;10536;51.582;5.016;2022-12-01T12:03:41;102789.28;;;10.97;100.00
20752;BME280;10536;51.582;5.016;2022-12-01T12:25:05;102769.59;;;11.05;100.00
20752;BME280;10536;51.582;5.016;2022-12-01T12:30:28;102774.16;;;11.22;100.00
20752;BME280;10536;51.582;5.016;2022-12-01T12:51:29;102754.03;;;12.34;100.00
20752;BME280;10536;51.582;5.016;2022-12-01T12:56:33;102745.19;;;12.15;100.00
20752;BME280;10536;51.582;5.016;2022-12-01T13:02:09;102745.91;;;12.04;100.00
20752;BME280;10536;51.582;5.016;2022-12-01T13:08:24;102738.03;;;11.94;100.00
20752;BME280;10536;51.582;5.016;2022-12-01T13:12:57;102743.22;;;11.94;100.00
20752;BME280;10536;51.582;5.016;2022-12-01T13:18:08;102727.72;;;12.00;100.00
20752;BME280;10536;51.582;5.016;2022-12-01T13:23:15;102732.13;;;12.09;100.00
20752;BME280;10536;51.582;5.016;2022-12-01T13:28:27;102732.13;;;12.07;100.00
20752;BME280;10536;51.582;5.016;2022-12-01T13:33:29;102732.75;;;11.88;100.00
20752;BME280;10536;51.582;5.016;2022-12-01T13:38:34;102735.41;;;11.92;100.00
20752;BME280;10536;51.582;5.016;2022-12-01T13:43:36;102724.63;;;11.61;100.00
20752;BME280;10536;51.582;5.016;2022-12-01T13:48:58;102716.63;;;12.12;100.00
20752;BME280;10536;51.582;5.016;2022-12-01T13:54:24;102718.22;;;12.00;100.00
20752;BME280;10536;51.582;5.016;2022-12-01T14:10:36;102729.47;;;12.02;100.00
20752;BME280;10536;51.582;5.016;2022-12-01T14:15:39;102720.75;;;11.96;100.00
20752;BME280;10536;51.582;5.016;2022-12-01T14:20:44;102724.63;;;12.35;100.00
20752;BME280;10536;51.582;5.016;2022-12-01T14:31:10;102725.69;;;11.79;100.00
20752;BME280;10536;51.582;5.016;2022-12-01T14:36:28;102733.47;;;11.76;100.00
20752;BME280;10536;51.582;5.016;2022-12-01T14:42:00;102729.69;;;11.54;100.00
20752;BME280;10536;51.582;5.016;2022-12-01T14:52:28;102722.19;;;11.75;100.00
20752;BME280;10536;51.582;5.016;2022-12-01T14:57:35;102718.00;;;11.83;100.00
20752;BME280;10536;51.582;5.016;2022-12-01T15:02:56;102720.94;;;12.14;100.00
20752;BME280;10536;51.582;5.016;2022-12-01T15:07:59;102725.97;;;11.99;100.00
20752;BME280;10536;51.582;5.016;2022-12-01T15:13:40;102730.34;;;12.04;100.00
20752;BME280;10536;51.582;5.016;2022-12-01T15:18:45;102729.44;;;11.98;100.00
20752;BME280;10536;51.582;5.016;2022-12-01T15:23:58;102729.38;;;11.95;100.00
20752;BME280;10536;51.582;5.016;2022-12-01T15:29:26;102738.66;;;11.76;100.00
20752;BME280;10536;51.582;5.016;2022-12-01T15:34:35;102728.19;;;11.71;100.00
20752;BME280;10536;51.582;5.016;2022-12-01T15:39:42;102723.88;;;11.70;100.00
20752;BME280;10536;51.582;5.016;2022-12-01T15:44:43;102734.13;;;11.61;100.00
20752;BME280;10536;51.582;5.016;2022-12-01T15:49:47;102728.00;;;11.56;100.00
20752;BME280;10536;51.582;5.016;2022-12-01T15:54:48;102725.50;;;11.63;100.00
20752;BME280;10536;51.582;5.016;2022-12-01T15:59:55;102727.19;;;11.58;100.00
20752;BME280;10536;51.582;5.016;2022-12-01T16:05:01;102728.63;;;11.39;100.00
20752;BME280;10536;51.582;5.016;2022-12-01T16:10:03;102731.44;;;11.55;100.00
20752;BME280;10536;51.582;5.016;2022-12-01T16:20:33;102733.78;;;11.38;100.00
20752;BME280;10536;51.582;5.016;2022-12-01T16:25:49;102740.53;;;11.26;100.00
20752;BME280;10536;51.582;5.016;2022-12-01T16:30:55;102753.50;;;11.25;100.00
20752;BME280;10536;51.582;5.016;2022-12-01T16:35:57;102749.00;;;11.15;100.00
20752;BME280;10536;51.582;5.016;2022-12-01T16:41:00;102749.44;;;11.42;100.00
20752;BME280;10536;51.582;5.016;2022-12-01T16:46:02;102747.84;;;11.52;100.00
20752;BME280;10536;51.582;5.016;2022-12-01T16:51:05;102750.28;;;11.43;100.00
20752;BME280;10536;51.582;5.016;2022-12-01T16:56:11;102750.88;;;11.23;100.00
20752;BME280;10536;51.582;5.016;2022-12-01T17:01:11;102753.97;;;11.01;100.00
20752;BME280;10536;51.582;5.016;2022-12-01T17:06:16;102746.16;;;10.99;100.00
20752;BME280;10536;51.582;5.016;2022-12-01T17:11:16;102742.41;;;11.35;100.00
20752;BME280;10536;51.582;5.016;2022-12-01T17:16:17;102742.09;;;11.76;100.00
20752;BME280;10536;51.582;5.016;2022-12-01T17:21:17;102742.59;;;11.49;100.00
20752;BME280;10536;51.582;5.016;2022-12-01T17:26:22;102733.69;;;11.30;100.00
20752;BME280;10536;51.582;5.016;2022-12-01T17:31:23;102738.66;;;11.76;100.00
20752;BME280;10536;51.582;5.016;2022-12-01T17:36:23;102731.97;;;11.32;100.00
20752;BME280;10536;51.582;5.016;2022-12-01T17:41:23;102727.75;;;11.37;100.00
20752;BME280;10536;51.582;5.016;2022-12-01T17:46:31;102729.38;;;11.31;100.00
20752;BME280;10536;51.582;5.016;2022-12-01T17:51:31;102733.47;;;11.13;100.00
20752;BME280;10536;51.582;5.016;2022-12-01T17:56:32;102731.22;;;11.39;100.00
20752;BME280;10536;51.582;5.016;2022-12-01T18:01:33;102727.78;;;11.39;100.00
20752;BME280;10536;51.582;5.016;2022-12-01T18:06:33;102723.53;;;11.45;100.00
20752;BME280;10536;51.582;5.016;2022-12-01T18:11:34;102726.94;;;11.41;100.00
20752;BME280;10536;51.582;5.016;2022-12-01T18:16:50;102726.56;;;11.17;100.00
20752;BME280;10536;51.582;5.016;2022-12-01T18:21:57;102736.09;;;11.18;100.00
20752;BME280;10536;51.582;5.016;2022-12-01T18:26:58;102729.34;;;11.27;100.00
20752;BME280;10536;51.582;5.016;2022-12-01T18:31:59;102726.13;;;11.45;100.00
20752;BME280;10536;51.582;5.016;2022-12-01T18:37:01;102733.88;;;11.44;100.00
20752;BME280;10536;51.582;5.016;2022-12-01T18:42:02;102735.47;;;11.34;100.00
20752;BME280;10536;51.582;5.016;2022-12-01T18:47:03;102738.16;;;11.39;100.00
20752;BME280;10536;51.582;5.016;2022-12-01T18:52:03;102733.69;;;11.30;100.00
20752;BME280;10536;51.582;5.016;2022-12-01T18:57:04;102725.16;;;11.37;100.00
20752;BME280;10536;51.582;5.016;2022-12-01T19:02:06;102723.41;;;11.36;100.00
20752;BME280;10536;51.582;5.016;2022-12-01T19:07:08;102717.22;;;11.25;100.00
20752;BME280;10536;51.582;5.016;2022-12-01T19:12:08;102728.00;;;10.96;100.00
20752;BME280;10536;51.582;5.016;2022-12-01T19:17:15;102729.84;;;11.03;100.00
20752;BME280;10536;51.582;5.016;2022-12-01T19:22:16;102731.41;;;10.95;100.00
20752;BME280;10536;51.582;5.016;2022-12-01T19:27:17;102724.50;;;10.93;100.00
20752;BME280;10536;51.582;5.016;2022-12-01T19:32:18;102723.78;;;11.01;100.00
20752;BME280;10536;51.582;5.016;2022-12-01T19:37:18;102733.47;;;10.61;100.00
20752;BME280;10536;51.582;5.016;2022-12-01T19:42:19;102730.25;;;10.75;100.00
20752;BME280;10536;51.582;5.016;2022-12-01T19:47:20;102728.50;;;10.75;100.00
20752;BME280;10536;51.582;5.016;2022-12-01T19:52:20;102728.34;;;10.66;100.00
20752;BME280;10536;51.582;5.016;2022-12-01T19:57:21;102726.28;;;10.97;100.00
20752;BME280;10536;51.582;5.016;2022-12-01T20:02:21;102721.53;;;10.70;100.00
20752;BME280;10536;51.582;5.016;2022-12-01T20:07:23;102721.63;;;10.74;100.00
20752;BME280;10536;51.582;5.016;2022-12-01T20:12:23;102718.91;;;10.66;100.00
20752;BME280;10536;51.582;5.016;2022-12-01T20:17:24;102718.13;;;10.74;100.00
20752;BME280;10536;51.582;5.016;2022-12-01T20:22:24;102723.94;;;10.60;100.00
20752;BME280;10536;51.582;5.016;2022-12-01T20:27:26;102725.22;;;10.85;100.00
20752;BME280;10536;51.582;5.016;2022-12-01T20:32:27;102723.03;;;10.58;100.00
20752;BME280;10536;51.582;5.016;2022-12-01T20:37:27;102720.38;;;10.54;100.00
20752;BME280;10536;51.582;5.016;2022-12-01T20:42:27;102722.84;;;10.46;100.00
20752;BME280;10536;51.582;5.016;2022-12-01T20:47:28;102722.03;;;10.50;100.00
20752;BME280;10536;51.582;5.016;2022-12-01T20:52:30;102723.56;;;10.39;100.00
20752;BME280;10536;51.582;5.016;2022-12-01T20:57:30;102715.16;;;10.49;100.00
20752;BME280;10536;51.582;5.016;2022-12-01T21:02:31;102711.91;;;10.61;100.00
20752;BME280;10536;51.582;5.016;2022-12-01T21:07:31;102717.91;;;10.60;100.00
20752;BME280;10536;51.582;5.016;2022-12-01T21:12:32;102703.00;;;10.45;100.00
20752;BME280;10536;51.582;5.016;2022-12-01T21:18:02;102704.09;;;10.59;100.00
20752;BME280;10536;51.582;5.016;2022-12-01T21:23:14;102703.91;;;10.48;100.00
20752;BME280;10536;51.582;5.016;2022-12-01T21:28:17;102700.28;;;10.37;100.00
20752;BME280;10536;51.582;5.016;2022-12-01T21:33:30;102700.25;;;10.36;100.00
20752;BME280;10536;51.582;5.016;2022-12-01T21:38:30;102694.91;;;10.28;100.00
20752;BME280;10536;51.582;5.016;2022-12-01T21:43:33;102680.84;;;10.14;100.00
20752;BME280;10536;51.582;5.016;2022-12-01T21:48:35;102680.34;;;10.32;100.00
20752;BME280;10536;51.582;5.016;2022-12-01T21:53:38;102676.72;;;10.23;100.00
20752;BME280;10536;51.582;5.016;2022-12-01T21:58:39;102668.09;;;10.24;100.00
20752;BME280;10536;51.582;5.016;2022-12-01T22:03:43;102663.41;;;10.03;100.00
20752;BME280;10536;51.582;5.016;2022-12-01T22:08:45;102666.88;;;10.05;100.00
20752;BME280;10536;51.582;5.016;2022-12-01T22:13:51;102661.31;;;9.84;100.00
20752;BME280;10536;51.582;5.016;2022-12-01T22:18:56;102667.06;;;9.69;100.00
20752;BME280;10536;51.582;5.016;2022-12-01T22:24:55;102661.72;;;10.04;100.00
20752;BME280;10536;51.582;5.016;2022-12-01T22:29:39;102658.31;;;10.06;100.00
20752;BME280;10536;51.582;5.016;2022-12-01T22:34:55;102653.06;;;10.03;100.00
20752;BME280;10536;51.582;5.016;2022-12-01T22:39:56;102663.00;;;10.27;100.00
20752;BME280;10536;51.582;5.016;2022-12-01T22:45:14;102651.09;;;10.36;100.00
20752;BME280;10536;51.582;5.016;2022-12-01T22:50:38;102654.66;;;10.41;100.00
20752;BME280;10536;51.582;5.016;2022-12-01T22:55:38;102652.06;;;10.42;100.00
20752;BME280;10536;51.582;5.016;2022-12-01T23:00:39;102651.13;;;10.37;100.00
20752;BME280;10536;51.582;5.016;2022-12-01T23:05:40;102652.00;;;10.38;100.00
20752;BME280;10536;51.582;5.016;2022-12-01T23:10:50;102652.78;;;10.34;100.00
20752;BME280;10536;51.582;5.016;2022-12-01T23:16:09;102646.72;;;10.32;100.00
20752;BME280;10536;51.582;5.016;2022-12-01T23:21:10;102640.00;;;9.94;100.00
20752;BME280;10536;51.582;5.016;2022-12-01T23:26:10;102644.38;;;9.98;100.00
20752;BME280;10536;51.582;5.016;2022-12-01T23:31:11;102630.16;;;10.23;100.00
20752;BME280;10536;51.582;5.016;2022-12-01T23:36:22;102639.28;;;10.03;100.00
20752;BME280;10536;51.582;5.016;2022-12-01T23:46:26;102624.06;;;10.20;100.00
20752;BME280;10536;51.582;5.016;2022-12-01T23:51:30;102619.81;;;10.23;100.00
20752;BME280;10536;51.582;5.016;2022-12-01T23:56:31;102617.47;;;10.36;100.00
